sensor_id;sensor_type;location;lat;lon;timestamp;pressure;altitude;pressure_sealevel;temperature
82006;BMP280;71529;47.484;19.064;2023-07-30T00:00:40;100132.63;;;24.09
82006;BMP280;71529;47.484;19.064;2023-07-30T00:03:08;100130.47;;;24.13
82006;BMP280;71529;47.484;19.064;2023-07-30T00:05:37;100138.66;;;24.13
82006;BMP280;71529;47.484;19.064;2023-07-30T00:08:05;100142.91;;;24.14
82006;BMP280;71529;47.484;19.064;2023-07-30T00:10:35;100133.00;;;24.16
82006;BMP280;71529;47.484;19.064;2023-07-30T00:13:03;100122.28;;;24.13
82006;BMP280;71529;47.484;19.064;2023-07-30T00:15:32;100128.31;;;24.17
82006;BMP280;71529;47.484;19.064;2023-07-30T00:18:01;100128.03;;;24.15
82006;BMP280;71529;47.484;19.064;2023-07-30T00:20:29;100127.06;;;24.18
82006;BMP280;71529;47.484;19.064;2023-07-30T00:22:57;100129.34;;;24.20
82006;BMP280;71529;47.484;19.064;2023-07-30T00:25:25;100123.69;;;24.23
82006;BMP280;71529;47.484;19.064;2023-07-30T00:27:53;100134.34;;;24.21
82006;BMP280;71529;47.484;19.064;2023-07-30T00:30:21;100120.88;;;24.18
82006;BMP280;71529;47.484;19.064;2023-07-30T00:32:49;100125.97;;;24.25
82006;BMP280;71529;47.484;19.064;2023-07-30T00:35:19;100111.28;;;24.22
82006;BMP280;71529;47.484;19.064;2023-07-30T00:37:47;100113.09;;;24.25
82006;BMP280;71529;47.484;19.064;2023-07-30T00:40:15;100116.53;;;24.26
82006;BMP280;71529;47.484;19.064;2023-07-30T00:42:43;100113.91;;;24.31
82006;BMP280;71529;47.484;19.064;2023-07-30T00:45:11;100110.72;;;24.33
82006;BMP280;71529;47.484;19.064;2023-07-30T00:47:39;100112.97;;;24.34
82006;BMP280;71529;47.484;19.064;2023-07-30T00:50:09;100122.47;;;24.39
82006;BMP280;71529;47.484;19.064;2023-07-30T00:52:40;100100.25;;;24.46
82006;BMP280;71529;47.484;19.064;2023-07-30T00:55:09;100100.72;;;24.45
82006;BMP280;71529;47.484;19.064;2023-07-30T00:57:37;100103.75;;;24.47
82006;BMP280;71529;47.484;19.064;2023-07-30T01:00:06;100096.97;;;24.42
82006;BMP280;71529;47.484;19.064;2023-07-30T01:02:36;100097.72;;;24.43
82006;BMP280;71529;47.484;19.064;2023-07-30T01:05:04;100095.25;;;24.45
82006;BMP280;71529;47.484;19.064;2023-07-30T01:07:33;100091.50;;;24.42
82006;BMP280;71529;47.484;19.064;2023-07-30T01:10:02;100092.81;;;24.47
82006;BMP280;71529;47.484;19.064;2023-07-30T01:12:31;100095.25;;;24.45
82006;BMP280;71529;47.484;19.064;2023-07-30T01:15:01;100085.84;;;24.46
82006;BMP280;71529;47.484;19.064;2023-07-30T01:17:30;100088.84;;;24.48
82006;BMP280;71529;47.484;19.064;2023-07-30T01:19:58;100086.13;;;24.48
82006;BMP280;71529;47.484;19.064;2023-07-30T01:22:28;100088.28;;;24.44
82006;BMP280;71529;47.484;19.064;2023-07-30T01:24:55;100086.13;;;24.48
82006;BMP280;71529;47.484;19.064;2023-07-30T01:27:25;100075.56;;;24.41
82006;BMP280;71529;47.484;19.064;2023-07-30T01:30:01;100064.66;;;24.41
82006;BMP280;71529;47.484;19.064;2023-07-30T01:32:31;100054.50;;;24.41
82006;BMP280;71529;47.484;19.064;2023-07-30T01:35:02;100044.25;;;24.36
82006;BMP280;71529;47.484;19.064;2023-07-30T01:37:32;100045.75;;;24.37
82006;BMP280;71529;47.484;19.064;2023-07-30T01:40:01;100055.66;;;24.34
82006;BMP280;71529;47.484;19.064;2023-07-30T01:42:30;100054.97;;;24.40
82006;BMP280;71529;47.484;19.064;2023-07-30T01:44:58;100045.75;;;24.37
82006;BMP280;71529;47.484;19.064;2023-07-30T01:47:26;100050.94;;;24.35
82006;BMP280;71529;47.484;19.064;2023-07-30T01:49:54;100048.00;;;24.53
82006;BMP280;71529;47.484;19.064;2023-07-30T01:52:22;100039.72;;;24.48
82006;BMP280;71529;47.484;19.064;2023-07-30T01:54:51;100024.06;;;24.48
82006;BMP280;71529;47.484;19.064;2023-07-30T01:57:19;100032.56;;;24.50
82006;BMP280;71529;47.484;19.064;2023-07-30T01:59:47;100043.38;;;24.45
82006;BMP280;71529;47.484;19.064;2023-07-30T02:02:15;100043.88;;;24.43
82006;BMP280;71529;47.484;19.064;2023-07-30T02:04:43;100046.78;;;24.40
82006;BMP280;71529;47.484;19.064;2023-07-30T02:07:11;100039.00;;;24.32
82006;BMP280;71529;47.484;19.064;2023-07-30T02:09:39;100042.94;;;24.31
82006;BMP280;71529;47.484;19.064;2023-07-30T02:12:08;100040.03;;;24.35
82006;BMP280;71529;47.484;19.064;2023-07-30T02:14:38;100053.41;;;24.33
82006;BMP280;71529;47.484;19.064;2023-07-30T02:17:06;100050.31;;;24.25
82006;BMP280;71529;47.484;19.064;2023-07-30T02:19:34;100056.22;;;24.24
82006;BMP280;71529;47.484;19.064;2023-07-30T02:22:02;100060.75;;;24.27
82006;BMP280;71529;47.484;19.064;2023-07-30T02:24:30;100055.47;;;24.23
82006;BMP280;71529;47.484;19.064;2023-07-30T02:26:58;100060.88;;;24.18
82006;BMP280;71529;47.484;19.064;2023-07-30T02:29:27;100057.09;;;24.15
82006;BMP280;71529;47.484;19.064;2023-07-30T02:31:55;100054.09;;;24.13
82006;BMP280;71529;47.484;19.064;2023-07-30T02:34:23;100058.56;;;24.16
82006;BMP280;71529;47.484;19.064;2023-07-30T02:36:51;100063.19;;;24.25
82006;BMP280;71529;47.484;19.064;2023-07-30T02:39:19;100064.25;;;24.27
82006;BMP280;71529;47.484;19.064;2023-07-30T02:41:47;100065.19;;;24.24
82006;BMP280;71529;47.484;19.064;2023-07-30T02:44:15;100068.75;;;24.15
82006;BMP280;71529;47.484;19.064;2023-07-30T02:46:44;100065.91;;;24.25
82006;BMP280;71529;47.484;19.064;2023-07-30T02:49:12;100072.97;;;24.31
82006;BMP280;71529;47.484;19.064;2023-07-30T02:51:40;100071.97;;;24.14
82006;BMP280;71529;47.484;19.064;2023-07-30T02:54:10;100081.72;;;24.06
82006;BMP280;71529;47.484;19.064;2023-07-30T02:56:37;100070.81;;;24.06
82006;BMP280;71529;47.484;19.064;2023-07-30T02:59:05;100072.34;;;24.07
82006;BMP280;71529;47.484;19.064;2023-07-30T03:01:33;100071.78;;;24.03
82006;BMP280;71529;47.484;19.064;2023-07-30T03:04:04;100078.81;;;23.94
82006;BMP280;71529;47.484;19.064;2023-07-30T03:06:33;100072.44;;;23.97
82006;BMP280;71529;47.484;19.064;2023-07-30T03:09:01;100077.59;;;23.95
82006;BMP280;71529;47.484;19.064;2023-07-30T03:11:29;100071.41;;;23.95
82006;BMP280;71529;47.484;19.064;2023-07-30T03:13:57;100068.69;;;23.95
82006;BMP280;71529;47.484;19.064;2023-07-30T03:16:25;100070.09;;;23.90
82006;BMP280;71529;47.484;19.064;2023-07-30T03:18:53;100066.88;;;23.92
82006;BMP280;71529;47.484;19.064;2023-07-30T03:21:23;100064.63;;;23.90
82006;BMP280;71529;47.484;19.064;2023-07-30T03:23:50;100071.75;;;23.88
82006;BMP280;71529;47.484;19.064;2023-07-30T03:26:18;100070.44;;;23.83
82006;BMP280;71529;47.484;19.064;2023-07-30T03:28:46;100066.31;;;23.88
82006;BMP280;71529;47.484;19.064;2023-07-30T03:31:14;100065.56;;;23.87
82006;BMP280;71529;47.484;19.064;2023-07-30T03:33:43;100069.81;;;23.88
82006;BMP280;71529;47.484;19.064;2023-07-30T03:36:12;100067.09;;;23.88
82006;BMP280;71529;47.484;19.064;2023-07-30T03:38:42;100072.81;;;23.90
82006;BMP280;71529;47.484;19.064;2023-07-30T03:41:11;100077.81;;;23.92
82006;BMP280;71529;47.484;19.064;2023-07-30T03:43:39;100071.59;;;23.91
82006;BMP280;71529;47.484;19.064;2023-07-30T03:46:07;100080.03;;;23.93
82006;BMP280;71529;47.484;19.064;2023-07-30T03:48:35;100080.59;;;23.97
82006;BMP280;71529;47.484;19.064;2023-07-30T03:51:03;100081.81;;;23.96
82006;BMP280;71529;47.484;19.064;2023-07-30T03:53:30;100078.66;;;23.98
82006;BMP280;71529;47.484;19.064;2023-07-30T03:56:00;100072.72;;;24.00
82006;BMP280;71529;47.484;19.064;2023-07-30T03:58:28;100075.16;;;23.97
82006;BMP280;71529;47.484;19.064;2023-07-30T04:00:57;100075.44;;;24.00
82006;BMP280;71529;47.484;19.064;2023-07-30T04:03:25;100087.84;;;24.01
82006;BMP280;71529;47.484;19.064;2023-07-30T04:05:53;100085.59;;;23.99
82006;BMP280;71529;47.484;19.064;2023-07-30T04:08:21;100086.44;;;24.05
82006;BMP280;71529;47.484;19.064;2023-07-30T04:10:49;100092.19;;;24.07
82006;BMP280;71529;47.484;19.064;2023-07-30T04:13:19;100101.28;;;24.04
82006;BMP280;71529;47.484;19.064;2023-07-30T04:15:47;100105.34;;;24.09
82006;BMP280;71529;47.484;19.064;2023-07-30T04:18:15;100099.78;;;24.18
82006;BMP280;71529;47.484;19.064;2023-07-30T04:20:43;100104.41;;;24.12
82006;BMP280;71529;47.484;19.064;2023-07-30T04:23:11;100106.38;;;24.11
82006;BMP280;71529;47.484;19.064;2023-07-30T04:25:39;100096.59;;;24.05
82006;BMP280;71529;47.484;19.064;2023-07-30T04:28:07;100109.19;;;24.17
82006;BMP280;71529;47.484;19.064;2023-07-30T04:30:37;100107.25;;;24.18
82006;BMP280;71529;47.484;19.064;2023-07-30T04:33:05;100102.06;;;24.20
82006;BMP280;71529;47.484;19.064;2023-07-30T04:35:33;100100.84;;;24.21
82006;BMP280;71529;47.484;19.064;2023-07-30T04:38:01;100108.25;;;24.20
82006;BMP280;71529;47.484;19.064;2023-07-30T04:40:29;100101.59;;;24.21
82006;BMP280;71529;47.484;19.064;2023-07-30T04:42:57;100104.41;;;24.27
82006;BMP280;71529;47.484;19.064;2023-07-30T04:45:25;100109.22;;;24.32
82006;BMP280;71529;47.484;19.064;2023-07-30T04:47:54;100102.69;;;24.29
82006;BMP280;71529;47.484;19.064;2023-07-30T04:50:22;100102.69;;;24.29
82006;BMP280;71529;47.484;19.064;2023-07-30T04:52:51;100105.59;;;24.41
82006;BMP280;71529;47.484;19.064;2023-07-30T04:55:19;100109.75;;;24.36
82006;BMP280;71529;47.484;19.064;2023-07-30T04:57:47;100109.75;;;24.36
82006;BMP280;71529;47.484;19.064;2023-07-30T05:00:16;100109.56;;;24.40
82006;BMP280;71529;47.484;19.064;2023-07-30T05:02:44;100110.03;;;24.38
82006;BMP280;71529;47.484;19.064;2023-07-30T05:05:13;100115.22;;;24.36
82006;BMP280;71529;47.484;19.064;2023-07-30T05:07:46;100120.69;;;24.36
82006;BMP280;71529;47.484;19.064;2023-07-30T05:10:14;100121.44;;;24.37
82006;BMP280;71529;47.484;19.064;2023-07-30T05:12:43;100123.50;;;24.42
82006;BMP280;71529;47.484;19.064;2023-07-30T05:15:11;100121.72;;;24.39
82006;BMP280;71529;47.484;19.064;2023-07-30T05:17:39;100121.91;;;24.35
82006;BMP280;71529;47.484;19.064;2023-07-30T05:20:08;100113.25;;;24.37
82006;BMP280;71529;47.484;19.064;2023-07-30T05:22:38;100120.75;;;24.42
82006;BMP280;71529;47.484;19.064;2023-07-30T05:25:06;100127.44;;;24.41
82006;BMP280;71529;47.484;19.064;2023-07-30T05:27:35;100115.03;;;24.40
82006;BMP280;71529;47.484;19.064;2023-07-30T05:30:03;100119.81;;;24.45
82006;BMP280;71529;47.484;19.064;2023-07-30T05:32:32;100118.59;;;24.46
82006;BMP280;71529;47.484;19.064;2023-07-30T05:35:00;100119.06;;;24.44
82006;BMP280;71529;47.484;19.064;2023-07-30T05:37:28;100115.09;;;24.45
82006;BMP280;71529;47.484;19.064;2023-07-30T05:39:58;100106.16;;;24.45
82006;BMP280;71529;47.484;19.064;2023-07-30T05:42:26;100115.38;;;24.47
82006;BMP280;71529;47.484;19.064;2023-07-30T05:44:54;100116.16;;;24.48
82006;BMP280;71529;47.484;19.064;2023-07-30T05:47:22;100111.22;;;24.52
82006;BMP280;71529;47.484;19.064;2023-07-30T05:49:50;100107.28;;;24.53
82006;BMP280;71529;47.484;19.064;2023-07-30T05:52:18;100112.75;;;24.53
82006;BMP280;71529;47.484;19.064;2023-07-30T05:54:46;100110.00;;;24.53
82006;BMP280;71529;47.484;19.064;2023-07-30T05:57:15;100112.75;;;24.53
82006;BMP280;71529;47.484;19.064;2023-07-30T05:59:43;100113.00;;;24.55
82006;BMP280;71529;47.484;19.064;2023-07-30T06:02:11;100118.78;;;24.57
82006;BMP280;71529;47.484;19.064;2023-07-30T06:04:39;100118.03;;;24.57
82006;BMP280;71529;47.484;19.064;2023-07-30T06:07:07;100114.31;;;24.60
82006;BMP280;71529;47.484;19.064;2023-07-30T06:09:35;100129.41;;;24.55
82006;BMP280;71529;47.484;19.064;2023-07-30T06:12:03;100121.69;;;24.53
82006;BMP280;71529;47.484;19.064;2023-07-30T06:14:33;100112.75;;;24.53
82006;BMP280;71529;47.484;19.064;2023-07-30T06:17:01;100120.84;;;24.62
82006;BMP280;71529;47.484;19.064;2023-07-30T06:19:29;100121.31;;;24.61
82006;BMP280;71529;47.484;19.064;2023-07-30T06:21:57;100115.53;;;24.59
82006;BMP280;71529;47.484;19.064;2023-07-30T06:24:25;100120.75;;;24.57
82006;BMP280;71529;47.484;19.064;2023-07-30T06:27:10;100116.03;;;24.57
82006;BMP280;71529;47.484;19.064;2023-07-30T06:29:40;100115.09;;;24.60
82006;BMP280;71529;47.484;19.064;2023-07-30T06:32:08;100113.88;;;24.61
82006;BMP280;71529;47.484;19.064;2023-07-30T06:34:36;100115.38;;;24.62
82006;BMP280;71529;47.484;19.064;2023-07-30T06:37:04;100124.81;;;24.61
82006;BMP280;71529;47.484;19.064;2023-07-30T06:39:32;100120.28;;;24.58
82006;BMP280;71529;47.484;19.064;2023-07-30T06:42:00;100125.53;;;24.62
82006;BMP280;71529;47.484;19.064;2023-07-30T06:44:28;100112.63;;;24.62
82006;BMP280;71529;47.484;19.064;2023-07-30T06:46:58;100125.81;;;24.64
82006;BMP280;71529;47.484;19.064;2023-07-30T06:49:26;100122.59;;;24.65
82006;BMP280;71529;47.484;19.064;2023-07-30T06:51:55;100121.47;;;24.72
82006;BMP280;71529;47.484;19.064;2023-07-30T06:54:23;100127.94;;;24.75
82006;BMP280;71529;47.484;19.064;2023-07-30T06:56:51;100118.53;;;24.76
82006;BMP280;71529;47.484;19.064;2023-07-30T06:59:19;100116.06;;;24.78
82006;BMP280;71529;47.484;19.064;2023-07-30T07:01:47;100114.56;;;24.77
82006;BMP280;71529;47.484;19.064;2023-07-30T07:04:16;100114.34;;;24.80
82006;BMP280;71529;47.484;19.064;2023-07-30T07:06:44;100115.13;;;24.81
82006;BMP280;71529;47.484;19.064;2023-07-30T07:09:12;100115.06;;;24.75
82006;BMP280;71529;47.484;19.064;2023-07-30T07:11:40;100125.22;;;24.75
82006;BMP280;71529;47.484;19.064;2023-07-30T07:14:08;100136.63;;;24.73
82006;BMP280;71529;47.484;19.064;2023-07-30T07:16:36;100142.84;;;24.74
82006;BMP280;71529;47.484;19.064;2023-07-30T07:19:04;100145.84;;;24.76
82006;BMP280;71529;47.484;19.064;2023-07-30T07:21:34;100149.88;;;24.80
82006;BMP280;71529;47.484;19.064;2023-07-30T07:24:02;100158.06;;;24.80
82006;BMP280;71529;47.484;19.064;2023-07-30T07:26:30;100168.75;;;24.78
82006;BMP280;71529;47.484;19.064;2023-07-30T07:28:58;100165.50;;;24.80
82006;BMP280;71529;47.484;19.064;2023-07-30T07:31:26;100180.69;;;24.81
82006;BMP280;71529;47.484;19.064;2023-07-30T07:33:55;100190.00;;;24.74
82006;BMP280;71529;47.484;19.064;2023-07-30T07:36:23;100181.00;;;24.68
82006;BMP280;71529;47.484;19.064;2023-07-30T07:38:52;100184.19;;;24.66
82006;BMP280;71529;47.484;19.064;2023-07-30T07:41:20;100183.91;;;24.64
82006;BMP280;71529;47.484;19.064;2023-07-30T07:43:48;100175.44;;;24.62
82006;BMP280;71529;47.484;19.064;2023-07-30T07:46:19;100180.63;;;24.60
82006;BMP280;71529;47.484;19.064;2023-07-30T07:48:47;100181.06;;;24.59
82006;BMP280;71529;47.484;19.064;2023-07-30T07:51:15;100185.50;;;24.56
82006;BMP280;71529;47.484;19.064;2023-07-30T07:53:43;100186.38;;;24.62
82006;BMP280;71529;47.484;19.064;2023-07-30T07:56:12;100182.03;;;24.56
82006;BMP280;71529;47.484;19.064;2023-07-30T07:58:40;100193.53;;;24.45
82006;BMP280;71529;47.484;19.064;2023-07-30T08:01:09;100193.81;;;24.47
82006;BMP280;71529;47.484;19.064;2023-07-30T08:03:37;100203.50;;;24.33
82006;BMP280;71529;47.484;19.064;2023-07-30T08:06:06;100202.38;;;24.25
82006;BMP280;71529;47.484;19.064;2023-07-30T08:08:34;100212.25;;;24.37
82006;BMP280;71529;47.484;19.064;2023-07-30T08:11:04;100220.63;;;24.33
82006;BMP280;71529;47.484;19.064;2023-07-30T08:13:35;100212.53;;;24.24
82006;BMP280;71529;47.484;19.064;2023-07-30T08:16:03;100217.97;;;24.09
82006;BMP280;71529;47.484;19.064;2023-07-30T08:18:31;100219.53;;;24.01
82006;BMP280;71529;47.484;19.064;2023-07-30T08:20:59;100228.50;;;24.02
82006;BMP280;71529;47.484;19.064;2023-07-30T08:23:27;100227.91;;;23.97
82006;BMP280;71529;47.484;19.064;2023-07-30T08:25:55;100228.03;;;24.03
82006;BMP280;71529;47.484;19.064;2023-07-30T08:28:23;100217.00;;;23.97
82006;BMP280;71529;47.484;19.064;2023-07-30T08:30:53;100225.94;;;23.98
82006;BMP280;71529;47.484;19.064;2023-07-30T08:33:21;100236.56;;;23.96
82006;BMP280;71529;47.484;19.064;2023-07-30T08:35:49;100233.44;;;23.88
82006;BMP280;71529;47.484;19.064;2023-07-30T08:38:16;100232.28;;;23.80
82006;BMP280;71529;47.484;19.064;2023-07-30T08:40:44;100244.56;;;23.75
82006;BMP280;71529;47.484;19.064;2023-07-30T08:43:13;100239.53;;;23.83
82006;BMP280;71529;47.484;19.064;2023-07-30T08:45:41;100240.81;;;23.73
82006;BMP280;71529;47.484;19.064;2023-07-30T08:48:13;100233.53;;;23.70
82006;BMP280;71529;47.484;19.064;2023-07-30T08:50:41;100233.00;;;23.66
82006;BMP280;71529;47.484;19.064;2023-07-30T08:53:10;100227.22;;;23.64
82006;BMP280;71529;47.484;19.064;2023-07-30T08:55:39;100230.56;;;23.58
82006;BMP280;71529;47.484;19.064;2023-07-30T08:58:09;100231.16;;;23.63
82006;BMP280;71529;47.484;19.064;2023-07-30T09:00:40;100216.44;;;23.45
82006;BMP280;71529;47.484;19.064;2023-07-30T09:03:09;100220.28;;;23.38
82006;BMP280;71529;47.484;19.064;2023-07-30T09:05:39;100221.91;;;23.36
82006;BMP280;71529;47.484;19.064;2023-07-30T09:08:08;100223.78;;;23.30
82006;BMP280;71529;47.484;19.064;2023-07-30T09:10:37;100225.88;;;23.35
82006;BMP280;71529;47.484;19.064;2023-07-30T09:13:05;100216.81;;;23.29
82006;BMP280;71529;47.484;19.064;2023-07-30T09:15:35;100221.66;;;23.34
82006;BMP280;71529;47.484;19.064;2023-07-30T09:18:05;100224.69;;;23.27
82006;BMP280;71529;47.484;19.064;2023-07-30T09:20:40;100223.78;;;23.30
82006;BMP280;71529;47.484;19.064;2023-07-30T09:23:09;100222.25;;;23.29
82006;BMP280;71529;47.484;19.064;2023-07-30T09:25:38;100223.25;;;23.16
82006;BMP280;71529;47.484;19.064;2023-07-30T09:28:06;100229.13;;;23.24
82006;BMP280;71529;47.484;19.064;2023-07-30T09:30:34;100220.16;;;23.23
82006;BMP280;71529;47.484;19.064;2023-07-30T09:33:03;100227.00;;;23.19
82006;BMP280;71529;47.484;19.064;2023-07-30T09:38:07;100224.38;;;23.34
82006;BMP280;71529;47.484;19.064;2023-07-30T09:40:36;100225.31;;;23.31
82006;BMP280;71529;47.484;19.064;2023-07-30T09:43:05;100223.50;;;23.28
82006;BMP280;71529;47.484;19.064;2023-07-30T09:45:35;100219.72;;;23.25
82006;BMP280;71529;47.484;19.064;2023-07-30T09:48:05;100224.38;;;23.34
82006;BMP280;71529;47.484;19.064;2023-07-30T09:50:34;100209.25;;;23.33
82006;BMP280;71529;47.484;19.064;2023-07-30T09:53:03;100229.19;;;23.39
82006;BMP280;71529;47.484;19.064;2023-07-30T09:55:33;100220.94;;;23.24
82006;BMP280;71529;47.484;19.064;2023-07-30T09:58:01;100228.03;;;23.31
82006;BMP280;71529;47.484;19.064;2023-07-30T10:00:29;100219.69;;;23.34
82006;BMP280;71529;47.484;19.064;2023-07-30T10:02:58;100225.59;;;23.33
82006;BMP280;71529;47.484;19.064;2023-07-30T10:05:32;100219.06;;;23.30
82006;BMP280;71529;47.484;19.064;2023-07-30T10:08:04;100217.41;;;23.33
82006;BMP280;71529;47.484;19.064;2023-07-30T10:10:36;100211.69;;;23.31
82006;BMP280;71529;47.484;19.064;2023-07-30T10:13:06;100218.75;;;23.28
82006;BMP280;71529;47.484;19.064;2023-07-30T10:15:37;100218.75;;;23.28
82006;BMP280;71529;47.484;19.064;2023-07-30T10:18:05;100228.78;;;23.31
82006;BMP280;71529;47.484;19.064;2023-07-30T10:20:34;100219.72;;;23.25
82006;BMP280;71529;47.484;19.064;2023-07-30T10:23:04;100224.81;;;23.32
82006;BMP280;71529;47.484;19.064;2023-07-30T10:25:44;100226.41;;;23.48
82006;BMP280;71529;47.484;19.064;2023-07-30T10:28:32;100221.38;;;23.32
82006;BMP280;71529;47.484;19.064;2023-07-30T10:31:01;100221.66;;;23.34
82006;BMP280;71529;47.484;19.064;2023-07-30T10:33:47;100217.97;;;23.37
82006;BMP280;71529;47.484;19.064;2023-07-30T10:36:18;100216.78;;;23.38
82006;BMP280;71529;47.484;19.064;2023-07-30T10:38:46;100210.91;;;23.30
82006;BMP280;71529;47.484;19.064;2023-07-30T10:41:16;100212.69;;;23.33
82006;BMP280;71529;47.484;19.064;2023-07-30T10:43:47;100219.06;;;23.39
82006;BMP280;71529;47.484;19.064;2023-07-30T10:46:16;100215.84;;;23.41
82006;BMP280;71529;47.484;19.064;2023-07-30T10:48:46;100211.75;;;23.46
82006;BMP280;71529;47.484;19.064;2023-07-30T10:51:15;100206.16;;;23.40
82006;BMP280;71529;47.484;19.064;2023-07-30T10:53:44;100195.91;;;23.35
82006;BMP280;71529;47.484;19.064;2023-07-30T10:56:12;100202.97;;;23.41
82006;BMP280;71529;47.484;19.064;2023-07-30T10:58:42;100207.84;;;23.37
82006;BMP280;71529;47.484;19.064;2023-07-30T11:01:11;100201.59;;;23.46
82006;BMP280;71529;47.484;19.064;2023-07-30T11:03:40;100201.13;;;23.48
82006;BMP280;71529;47.484;19.064;2023-07-30T11:06:08;100200.66;;;23.49
82006;BMP280;71529;47.484;19.064;2023-07-30T11:08:37;100202.59;;;23.58
82006;BMP280;71529;47.484;19.064;2023-07-30T11:11:07;100203.06;;;23.56
82006;BMP280;71529;47.484;19.064;2023-07-30T11:13:36;100200.22;;;23.51
82006;BMP280;71529;47.484;19.064;2023-07-30T11:16:07;100196.72;;;23.50
82006;BMP280;71529;47.484;19.064;2023-07-30T11:18:35;100195.50;;;23.51
82006;BMP280;71529;47.484;19.064;2023-07-30T11:21:05;100199.16;;;23.48
82006;BMP280;71529;47.484;19.064;2023-07-30T11:23:33;100200.03;;;23.54
82006;BMP280;71529;47.484;19.064;2023-07-30T11:26:03;100203.06;;;23.56
82006;BMP280;71529;47.484;19.064;2023-07-30T11:28:33;100200.34;;;23.47
82006;BMP280;71529;47.484;19.064;2023-07-30T11:31:06;100200.66;;;23.49
82006;BMP280;71529;47.484;19.064;2023-07-30T11:33:36;100193.44;;;23.37
82006;BMP280;71529;47.484;19.064;2023-07-30T11:36:06;100206.88;;;23.50
82006;BMP280;71529;47.484;19.064;2023-07-30T11:38:35;100205.19;;;23.52
82006;BMP280;71529;47.484;19.064;2023-07-30T11:41:03;100217.59;;;23.53
82006;BMP280;71529;47.484;19.064;2023-07-30T11:43:32;100205.19;;;23.52
82006;BMP280;71529;47.484;19.064;2023-07-30T11:46:12;100209.72;;;23.55
82006;BMP280;71529;47.484;19.064;2023-07-30T11:48:43;100202.78;;;23.54
82006;BMP280;71529;47.484;19.064;2023-07-30T11:51:19;100205.31;;;23.58
82006;BMP280;71529;47.484;19.064;2023-07-30T11:53:49;100209.66;;;23.65
82006;BMP280;71529;47.484;19.064;2023-07-30T11:56:23;100208.63;;;23.62
82006;BMP280;71529;47.484;19.064;2023-07-30T11:58:55;100199.09;;;23.57
82006;BMP280;71529;47.484;19.064;2023-07-30T12:01:26;100200.59;;;23.58
82006;BMP280;71529;47.484;19.064;2023-07-30T12:03:55;100202.00;;;23.54
82006;BMP280;71529;47.484;19.064;2023-07-30T12:06:24;100206.34;;;23.60
82006;BMP280;71529;47.484;19.064;2023-07-30T12:08:52;100197.81;;;23.68
82006;BMP280;71529;47.484;19.064;2023-07-30T12:11:20;100211.22;;;23.56
82006;BMP280;71529;47.484;19.064;2023-07-30T12:13:48;100203.31;;;23.58
82006;BMP280;71529;47.484;19.064;2023-07-30T12:16:17;100203.91;;;23.63
82006;BMP280;71529;47.484;19.064;2023-07-30T12:18:49;100187.34;;;23.66
82006;BMP280;71529;47.484;19.064;2023-07-30T12:21:17;100198.94;;;23.61
82006;BMP280;71529;47.484;19.064;2023-07-30T12:23:45;100206.81;;;23.59
82006;BMP280;71529;47.484;19.064;2023-07-30T12:26:14;100205.91;;;23.62
82006;BMP280;71529;47.484;19.064;2023-07-30T12:28:42;100207.88;;;23.61
82006;BMP280;71529;47.484;19.064;2023-07-30T12:31:10;100207.88;;;23.61
82006;BMP280;71529;47.484;19.064;2023-07-30T12:33:38;100203.81;;;23.57
82006;BMP280;71529;47.484;19.064;2023-07-30T12:36:08;100200.47;;;23.62
82006;BMP280;71529;47.484;19.064;2023-07-30T12:38:36;100186.34;;;23.64
82006;BMP280;71529;47.484;19.064;2023-07-30T12:41:04;100190.81;;;23.76
82006;BMP280;71529;47.484;19.064;2023-07-30T12:43:32;100177.00;;;23.55
82006;BMP280;71529;47.484;19.064;2023-07-30T12:46:00;100169.09;;;23.57
82006;BMP280;71529;47.484;19.064;2023-07-30T12:48:28;100171.19;;;23.63
82006;BMP280;71529;47.484;19.064;2023-07-30T12:50:57;100169.50;;;23.65
82006;BMP280;71529;47.484;19.064;2023-07-30T12:53:26;100161.34;;;23.65
82006;BMP280;71529;47.484;19.064;2023-07-30T12:55:54;100149.78;;;23.70
82006;BMP280;71529;47.484;19.064;2023-07-30T12:58:22;100138.50;;;23.77
82006;BMP280;71529;47.484;19.064;2023-07-30T13:00:50;100147.75;;;23.80
82006;BMP280;71529;47.484;19.064;2023-07-30T13:03:20;100145.03;;;23.80
82006;BMP280;71529;47.484;19.064;2023-07-30T13:05:49;100139.81;;;23.82
82006;BMP280;71529;47.484;19.064;2023-07-30T13:08:19;100141.03;;;23.81
82006;BMP280;71529;47.484;19.064;2023-07-30T13:10:50;100137.41;;;23.84
82006;BMP280;71529;47.484;19.064;2023-07-30T13:13:19;100134.38;;;23.82
82006;BMP280;71529;47.484;19.064;2023-07-30T13:15:48;100119.81;;;23.85
82006;BMP280;71529;47.484;19.064;2023-07-30T13:18:17;100114.75;;;23.93
82006;BMP280;71529;47.484;19.064;2023-07-30T13:20:46;100118.41;;;23.90
82006;BMP280;71529;47.484;19.064;2023-07-30T13:23:14;100120.38;;;23.89
82006;BMP280;71529;47.484;19.064;2023-07-30T13:25:44;100112.09;;;23.69
82006;BMP280;71529;47.484;19.064;2023-07-30T13:28:14;100112.75;;;23.78
82006;BMP280;71529;47.484;19.064;2023-07-30T13:30:45;100114.06;;;23.83
82006;BMP280;71529;47.484;19.064;2023-07-30T13:33:13;100103.16;;;23.83
82006;BMP280;71529;47.484;19.064;2023-07-30T13:35:43;100103.84;;;23.93
82006;BMP280;71529;47.484;19.064;2023-07-30T13:38:13;100107.22;;;23.88
82006;BMP280;71529;47.484;19.064;2023-07-30T13:40:43;100111.81;;;23.82
82006;BMP280;71529;47.484;19.064;2023-07-30T13:43:13;100105.91;;;23.83
82006;BMP280;71529;47.484;19.064;2023-07-30T13:45:42;100100.91;;;23.82
82006;BMP280;71529;47.484;19.064;2023-07-30T13:48:11;100098.91;;;23.82
82006;BMP280;71529;47.484;19.064;2023-07-30T13:50:39;100090.94;;;23.93
82006;BMP280;71529;47.484;19.064;2023-07-30T13:53:08;100083.06;;;23.95
82006;BMP280;71529;47.484;19.064;2023-07-30T13:55:37;100075.63;;;23.96